createdAt,value
2023-05-06T00:01:39.642Z,13.17
2023-05-06T00:04:06.122Z,13.21
2023-05-06T00:06:32.702Z,13.12
2023-05-06T00:08:59.451Z,13.23
2023-05-06T00:11:26.738Z,13.28
2023-05-06T00:13:53.091Z,13.31
2023-05-06T00:16:19.434Z,13.22
2023-05-06T00:18:45.849Z,13.12
2023-05-06T00:21:12.176Z,13.13
2023-05-06T00:23:38.563Z,13.03
2023-05-06T00:26:05.188Z,12.93
2023-05-06T00:28:31.589Z,12.72
2023-05-06T00:30:57.914Z,12.88
2023-05-06T00:33:24.302Z,12.77
2023-05-06T00:35:52.153Z,12.69
2023-05-06T00:38:18.532Z,12.87
2023-05-06T00:40:45.352Z,12.91
2023-05-06T00:43:12.304Z,12.94
2023-05-06T00:45:38.751Z,12.92
2023-05-06T00:48:05.863Z,12.91
2023-05-06T00:50:33.092Z,13.00
2023-05-06T00:53:00.339Z,12.86
2023-05-06T00:55:27.416Z,12.91
2023-05-06T00:57:54.348Z,12.95
2023-05-06T01:00:21.049Z,12.98
2023-05-06T01:02:48.397Z,12.94
2023-05-06T01:05:17.290Z,13.01
2023-05-06T01:08:05.703Z,12.97
2023-05-06T01:10:36.742Z,12.99
2023-05-06T01:13:35.473Z,13.02
2023-05-06T01:16:02.216Z,12.99
2023-05-06T01:18:29.906Z,13.01
2023-05-06T01:20:56.616Z,12.98
2023-05-06T01:23:23.015Z,13.01
2023-05-06T01:25:49.384Z,12.99
2023-05-06T01:28:15.703Z,12.98
2023-05-06T01:30:53.136Z,13.03
2023-05-06T01:33:28.375Z,13.04
2023-05-06T01:36:07.049Z,12.96
2023-05-06T01:38:52.730Z,12.96
2023-05-06T01:41:19.983Z,12.94
2023-05-06T01:43:47.868Z,13.00
2023-05-06T01:46:18.491Z,12.99
2023-05-06T01:48:46.216Z,12.97
2023-05-06T01:51:12.757Z,12.74
2023-05-06T01:53:39.092Z,12.80
2023-05-06T01:56:05.815Z,12.71
2023-05-06T01:58:32.162Z,12.64
2023-05-06T02:00:58.632Z,12.61
2023-05-06T02:03:25.115Z,12.61
2023-05-06T02:05:51.503Z,12.58
2023-05-06T02:08:17.846Z,12.54
2023-05-06T02:10:44.187Z,12.51
2023-05-06T02:13:11.861Z,12.44
2023-05-06T02:15:38.232Z,12.51
2023-05-06T02:18:04.671Z,12.49
2023-05-06T02:20:31.054Z,12.51
2023-05-06T02:22:57.382Z,12.46
2023-05-06T02:25:23.709Z,12.50
2023-05-06T02:27:50.023Z,12.46
2023-05-06T02:30:16.386Z,12.50
2023-05-06T02:32:42.931Z,12.54
2023-05-06T02:35:09.812Z,12.60
2023-05-06T02:37:36.418Z,12.64
2023-05-06T02:40:02.753Z,12.62
2023-05-06T02:42:29.158Z,12.54
2023-05-06T02:44:55.555Z,12.51
2023-05-06T02:47:21.915Z,12.48
2023-05-06T02:49:48.298Z,12.44
2023-05-06T02:52:14.744Z,12.44
2023-05-06T02:54:41.080Z,12.43
2023-05-06T02:57:07.482Z,12.43
2023-05-06T02:59:35.030Z,12.47
2023-05-06T03:02:01.395Z,12.37
2023-05-06T03:04:27.796Z,12.36
2023-05-06T03:06:54.232Z,12.30
2023-05-06T03:09:20.562Z,12.31
2023-05-06T03:11:47.256Z,12.20
2023-05-06T03:14:13.604Z,12.27
2023-05-06T03:16:39.997Z,12.27
2023-05-06T03:19:06.369Z,12.31
2023-05-06T03:21:32.897Z,12.27
2023-05-06T03:23:59.462Z,12.19
2023-05-06T03:26:25.796Z,12.11
2023-05-06T03:28:52.125Z,12.17
2023-05-06T03:31:18.476Z,12.12
2023-05-06T03:33:44.839Z,12.15
2023-05-06T03:36:11.198Z,12.03
2023-05-06T03:38:38.545Z,12.06
2023-05-06T03:41:04.885Z,12.11
2023-05-06T03:43:31.220Z,12.04
2023-05-06T03:45:58.060Z,11.99
2023-05-06T03:48:24.422Z,12.00
2023-05-06T03:50:51.173Z,11.91
2023-05-06T03:53:17.547Z,11.91
2023-05-06T03:55:43.874Z,11.81
2023-05-06T03:58:10.935Z,11.92
2023-05-06T04:00:37.299Z,11.95
2023-05-06T04:03:03.738Z,11.95
2023-05-06T04:05:30.136Z,11.99
2023-05-06T04:07:56.468Z,11.94
2023-05-06T04:10:22.794Z,11.93
2023-05-06T04:12:49.137Z,11.96
2023-05-06T04:15:15.495Z,12.00
2023-05-06T04:17:41.845Z,11.97
2023-05-06T04:20:08.926Z,12.00
2023-05-06T04:22:35.286Z,11.95
2023-05-06T04:25:01.640Z,12.00
2023-05-06T04:27:27.977Z,12.01
2023-05-06T04:29:54.319Z,11.99
2023-05-06T04:32:20.634Z,11.98
2023-05-06T04:34:46.978Z,11.87
2023-05-06T04:37:13.290Z,11.94
2023-05-06T04:39:39.616Z,11.92
2023-05-06T04:42:06.067Z,11.95
2023-05-06T04:44:32.462Z,11.96
2023-05-06T04:46:58.789Z,11.95
2023-05-06T04:49:25.123Z,11.93
2023-05-06T04:51:51.462Z,12.05
2023-05-06T04:54:17.789Z,12.03
2023-05-06T04:56:44.116Z,11.90
2023-05-06T04:59:10.520Z,12.02
2023-05-06T05:01:36.885Z,12.12
2023-05-06T05:04:03.310Z,12.04
2023-05-06T05:06:29.637Z,12.10
2023-05-06T05:08:56.038Z,12.15
2023-05-06T05:11:22.609Z,12.09
2023-05-06T05:13:48.931Z,11.93
2023-05-06T05:16:15.341Z,12.00
2023-05-06T05:18:41.697Z,11.99
2023-05-06T05:21:08.050Z,12.04
2023-05-06T05:23:34.481Z,12.06
2023-05-06T05:26:01.334Z,12.04
2023-05-06T05:28:27.652Z,11.98
2023-05-06T05:30:54.009Z,11.95
2023-05-06T05:33:20.429Z,11.91
2023-05-06T05:35:46.863Z,11.83
2023-05-06T05:38:13.195Z,12.13
2023-05-06T05:40:39.549Z,12.26
2023-05-06T05:43:05.884Z,12.33
2023-05-06T05:45:32.214Z,12.39
2023-05-06T05:47:58.629Z,12.55
2023-05-06T05:50:24.971Z,12.66
2023-05-06T05:52:52.371Z,12.71
2023-05-06T05:55:18.751Z,12.79
2023-05-06T05:57:45.086Z,12.70
2023-05-06T06:00:13.471Z,12.51
2023-05-06T06:02:40.218Z,12.59
2023-05-06T06:05:07.229Z,12.67
2023-05-06T06:07:33.765Z,12.59
2023-05-06T06:10:00.161Z,12.51
2023-05-06T06:12:26.503Z,12.59
2023-05-06T06:14:52.863Z,12.63
2023-05-06T06:17:19.236Z,12.65
2023-05-06T06:19:46.255Z,12.71
2023-05-06T06:22:13.052Z,12.65
2023-05-06T06:24:39.406Z,12.74
2023-05-06T06:27:05.717Z,12.77
2023-05-06T06:29:32.070Z,12.74
2023-05-06T06:31:59.133Z,12.72
2023-05-06T06:34:25.537Z,12.63
2023-05-06T06:36:51.864Z,12.61
2023-05-06T06:39:18.199Z,12.54
2023-05-06T06:41:44.521Z,12.65
2023-05-06T06:44:10.888Z,12.63
2023-05-06T06:46:37.234Z,12.58
2023-05-06T06:49:03.572Z,12.52
2023-05-06T06:51:29.896Z,12.44
2023-05-06T06:53:56.229Z,12.49
2023-05-06T06:56:22.553Z,12.57
2023-05-06T06:58:49.573Z,12.58
2023-05-06T07:01:17.175Z,12.55
2023-05-06T07:03:43.558Z,12.60
2023-05-06T07:06:09.888Z,12.62
2023-05-06T07:08:36.235Z,12.65
2023-05-06T07:11:03.632Z,12.61
2023-05-06T07:13:29.977Z,12.57
2023-05-06T07:15:56.304Z,12.59
2023-05-06T07:18:22.668Z,12.58
2023-05-06T07:20:49.032Z,12.64
2023-05-06T07:23:15.375Z,12.61
2023-05-06T07:25:41.706Z,12.47
2023-05-06T07:28:08.087Z,12.47
2023-05-06T07:30:34.421Z,12.39
2023-05-06T07:33:00.833Z,12.37
2023-05-06T07:35:27.273Z,12.35
2023-05-06T07:37:53.631Z,12.33
2023-05-06T07:40:19.980Z,12.31
2023-05-06T07:42:46.352Z,12.33
2023-05-06T07:45:12.917Z,12.34
2023-05-06T07:47:39.538Z,12.32
2023-05-06T07:50:06.356Z,12.30
2023-05-06T07:52:32.737Z,12.27
2023-05-06T07:54:59.105Z,12.20
2023-05-06T07:57:25.527Z,12.11
2023-05-06T07:59:52.162Z,12.21
2023-05-06T08:02:18.764Z,12.26
2023-05-06T08:04:45.422Z,12.31
2023-05-06T08:07:11.859Z,12.56
2023-05-06T08:09:38.199Z,12.62
2023-05-06T08:12:04.696Z,12.74
2023-05-06T08:14:31.117Z,12.79
2023-05-06T08:16:57.456Z,12.68
2023-05-06T08:19:23.791Z,12.65
2023-05-06T08:21:50.123Z,12.75
2023-05-06T08:24:16.456Z,12.83
2023-05-06T08:26:42.805Z,12.68
2023-05-06T08:29:09.137Z,12.79
2023-05-06T08:31:36.560Z,12.83
2023-05-06T08:34:02.948Z,12.82
2023-05-06T08:36:29.290Z,12.74
2023-05-06T08:38:55.623Z,12.64
2023-05-06T08:41:22.127Z,12.76
2023-05-06T08:43:49.635Z,12.77
2023-05-06T08:46:16.914Z,12.80
2023-05-06T08:48:43.566Z,12.68
2023-05-06T08:51:13.683Z,12.70
2023-05-06T08:53:40.186Z,12.67
2023-05-06T08:56:10.547Z,12.73
2023-05-06T08:58:38.869Z,12.80
2023-05-06T09:01:05.487Z,12.91
2023-05-06T09:03:32.060Z,13.05
2023-05-06T09:05:58.572Z,13.10
2023-05-06T09:08:25.121Z,13.36
2023-05-06T09:10:51.517Z,13.23
2023-05-06T09:13:18.893Z,13.34
2023-05-06T09:15:47.298Z,13.51
2023-05-06T09:18:14.479Z,13.35
2023-05-06T09:20:42.417Z,13.36
2023-05-06T09:23:09.635Z,13.59
2023-05-06T09:25:36.925Z,13.69
2023-05-06T09:28:04.539Z,13.74
2023-05-06T09:30:30.886Z,13.56
2023-05-06T09:32:57.459Z,13.61
2023-05-06T09:35:28.140Z,13.64
2023-05-06T09:37:54.826Z,13.67
2023-05-06T09:40:25.236Z,13.85
2023-05-06T09:42:51.606Z,13.81
2023-05-06T09:45:18.014Z,13.50
2023-05-06T09:47:44.364Z,13.53
2023-05-06T09:50:13.448Z,13.59
2023-05-06T09:52:39.872Z,13.71
2023-05-06T09:55:06.573Z,13.73
2023-05-06T09:57:32.915Z,13.88
2023-05-06T10:00:00.108Z,14.35
2023-05-06T10:02:26.690Z,14.38
2023-05-06T10:04:54.737Z,14.45
2023-05-06T10:07:21.538Z,14.12
2023-05-06T10:09:49.060Z,14.20
2023-05-06T10:12:16.312Z,14.31
2023-05-06T10:14:42.642Z,14.37
2023-05-06T10:17:09.898Z,14.31
2023-05-06T10:19:40.027Z,14.21
2023-05-06T10:22:31.039Z,14.27
2023-05-06T10:25:05.007Z,14.50
2023-05-06T10:27:35.525Z,14.41
2023-05-06T10:30:02.991Z,14.33
2023-05-06T10:32:32.294Z,14.28
2023-05-06T10:35:05.692Z,14.35
2023-05-06T10:37:32.610Z,14.28
2023-05-06T10:39:59.677Z,14.32
2023-05-06T10:42:27.460Z,14.12
2023-05-06T10:45:01.644Z,14.29
2023-05-06T10:47:28.039Z,14.56
2023-05-06T10:50:18.942Z,14.47
2023-05-06T10:52:46.020Z,14.25
2023-05-06T10:55:31.532Z,14.44
2023-05-06T10:58:18.585Z,14.69
2023-05-06T11:00:53.710Z,14.78
2023-05-06T11:03:23.205Z,15.37
2023-05-06T11:05:51.014Z,15.55
2023-05-06T11:08:25.190Z,15.09
2023-05-06T11:10:52.669Z,15.06
2023-05-06T11:13:22.051Z,15.30
2023-05-06T11:15:49.412Z,15.20
2023-05-06T11:18:24.896Z,14.93
2023-05-06T11:20:51.948Z,14.81
2023-05-06T11:23:18.921Z,14.76
2023-05-06T11:25:45.259Z,14.82
2023-05-06T11:28:13.397Z,15.04
2023-05-06T11:30:44.160Z,14.90
2023-05-06T11:33:17.908Z,15.15
2023-05-06T11:35:44.603Z,15.37
2023-05-06T11:38:11.079Z,15.31
2023-05-06T11:40:37.475Z,15.59
2023-05-06T11:43:16.619Z,15.44
2023-05-06T11:45:46.395Z,15.71
2023-05-06T11:48:16.894Z,15.84
2023-05-06T11:50:48.492Z,15.74
2023-05-06T11:53:17.356Z,15.43
2023-05-06T11:55:44.449Z,15.80
2023-05-06T11:58:19.026Z,15.78
2023-05-06T12:00:51.229Z,15.82
2023-05-06T12:03:21.299Z,16.09
2023-05-06T12:05:49.044Z,16.34
2023-05-06T12:08:26.608Z,16.26
2023-05-06T12:10:59.853Z,15.82
2023-05-06T12:13:27.154Z,15.88
2023-05-06T12:15:54.719Z,16.26
2023-05-06T12:18:21.513Z,16.11
2023-05-06T12:20:47.833Z,16.22
2023-05-06T12:23:15.927Z,16.66
2023-05-06T12:25:43.389Z,16.15
2023-05-06T12:28:16.725Z,15.99
2023-05-06T12:30:43.666Z,15.87
2023-05-06T12:33:10.192Z,15.70
2023-05-06T12:35:37.055Z,16.44
2023-05-06T12:38:10.221Z,16.56
2023-05-06T12:40:36.631Z,16.26
2023-05-06T12:43:02.969Z,16.38
2023-05-06T12:45:29.423Z,16.18
2023-05-06T12:47:57.720Z,15.84
2023-05-06T12:50:40.495Z,16.13
2023-05-06T12:53:08.268Z,16.69
2023-05-06T12:55:37.842Z,16.72
2023-05-06T12:58:04.326Z,17.15
2023-05-06T13:00:30.651Z,17.61
2023-05-06T13:02:57.075Z,16.99
2023-05-06T13:05:23.461Z,16.78
2023-05-06T13:07:50.027Z,16.67
2023-05-06T13:10:16.357Z,16.55
2023-05-06T13:12:42.921Z,16.65
2023-05-06T13:15:09.678Z,16.54
2023-05-06T13:17:36.106Z,16.48
2023-05-06T13:20:04.451Z,16.88
2023-05-06T13:22:40.322Z,17.28
2023-05-06T13:25:13.592Z,16.95
2023-05-06T13:27:39.902Z,17.59
2023-05-06T13:30:06.761Z,16.98
2023-05-06T13:32:33.178Z,16.98
2023-05-06T13:34:59.589Z,17.25
2023-05-06T13:37:25.901Z,16.96
2023-05-06T13:39:53.275Z,16.99
2023-05-06T13:42:19.593Z,17.51
2023-05-06T13:44:45.922Z,17.49
2023-05-06T13:47:12.254Z,17.04
2023-05-06T13:49:38.594Z,17.15
2023-05-06T13:52:07.115Z,16.71
2023-05-06T13:54:34.434Z,16.36
2023-05-06T13:57:00.786Z,16.75
2023-05-06T13:59:27.136Z,16.89
2023-05-06T14:01:54.018Z,17.11
2023-05-06T14:04:20.376Z,16.89
2023-05-06T14:06:46.842Z,17.03
2023-05-06T14:09:13.162Z,16.82
2023-05-06T14:11:39.498Z,17.49
2023-05-06T14:14:05.833Z,17.77
2023-05-06T14:16:32.392Z,17.79
2023-05-06T14:18:59.136Z,17.89
2023-05-06T14:21:25.527Z,17.72
2023-05-06T14:23:51.846Z,17.62
2023-05-06T14:26:18.260Z,17.84
2023-05-06T14:28:44.599Z,17.77
2023-05-06T14:31:10.977Z,18.28
2023-05-06T14:33:37.977Z,17.65
2023-05-06T14:36:05.046Z,17.26
2023-05-06T14:38:31.394Z,17.42
2023-05-06T14:40:59.402Z,17.10
2023-05-06T14:43:25.962Z,17.54
2023-05-06T14:45:52.405Z,16.98
2023-05-06T14:48:18.773Z,17.12
2023-05-06T14:50:45.113Z,17.63
2023-05-06T14:53:11.516Z,17.41
2023-05-06T14:55:37.857Z,17.23
2023-05-06T14:58:04.172Z,17.67
2023-05-06T15:00:30.726Z,17.20
2023-05-06T15:02:57.062Z,17.30
2023-05-06T15:05:23.470Z,16.98
2023-05-06T15:07:49.841Z,17.26
2023-05-06T15:10:16.279Z,17.34
2023-05-06T15:12:42.627Z,17.35
2023-05-06T15:15:09.630Z,17.34
2023-05-06T15:17:37.294Z,17.33
2023-05-06T15:20:04.002Z,16.98
2023-05-06T15:22:30.415Z,16.66
2023-05-06T15:24:56.758Z,17.15
2023-05-06T15:27:23.088Z,17.02
2023-05-06T15:29:49.426Z,16.86
2023-05-06T15:32:15.824Z,16.97
2023-05-06T15:34:42.177Z,17.02
2023-05-06T15:37:08.507Z,16.93
2023-05-06T15:39:35.639Z,16.97
2023-05-06T15:42:02.277Z,17.17
2023-05-06T15:44:28.622Z,16.85
2023-05-06T15:46:55.024Z,17.15
2023-05-06T15:51:50.603Z,16.38
2023-05-06T15:54:16.933Z,16.41
2023-05-06T15:56:43.248Z,16.35
2023-05-06T15:59:09.583Z,16.37
2023-05-06T16:02:12.829Z,16.14
2023-05-06T16:04:23.602Z,15.72
2023-05-06T16:06:50.140Z,15.50
2023-05-06T16:09:16.495Z,15.36
2023-05-06T16:11:42.946Z,15.42
2023-05-06T16:14:09.259Z,15.77
2023-05-06T16:16:35.762Z,15.69
2023-05-06T16:19:02.287Z,15.95
2023-05-06T16:21:28.682Z,15.57
2023-05-06T16:23:55.022Z,15.30
2023-05-06T16:26:22.469Z,15.64
2023-05-06T16:28:48.799Z,15.91
2023-05-06T16:31:15.342Z,15.42
2023-05-06T16:33:41.769Z,15.44
2023-05-06T16:36:08.282Z,15.20
2023-05-06T16:38:34.612Z,15.20
2023-05-06T16:41:00.928Z,15.01
2023-05-06T16:43:27.642Z,15.22
2023-05-06T16:45:53.972Z,15.37
2023-05-06T16:48:20.357Z,15.34
2023-05-06T16:50:46.756Z,15.03
2023-05-06T16:53:13.146Z,14.89
2023-05-06T16:55:39.743Z,14.68
2023-05-06T16:58:06.122Z,14.69
2023-05-06T17:00:32.688Z,14.66
2023-05-06T17:02:59.241Z,14.55
2023-05-06T17:05:25.728Z,14.53
2023-05-06T17:07:52.588Z,14.59
2023-05-06T17:10:18.960Z,14.35
2023-05-06T17:12:45.334Z,14.15
2023-05-06T17:15:11.888Z,14.21
2023-05-06T17:17:39.470Z,14.31
2023-05-06T17:20:06.482Z,14.24
2023-05-06T17:22:32.887Z,13.83
2023-05-06T17:24:59.212Z,13.47
2023-05-06T17:27:25.578Z,13.40
2023-05-06T17:29:52.971Z,13.31
2023-05-06T17:32:19.376Z,13.24
2023-05-06T17:34:46.750Z,13.09
2023-05-06T17:37:13.102Z,13.08
2023-05-06T17:39:39.473Z,13.04
2023-05-06T17:42:06.066Z,13.03
2023-05-06T17:44:32.448Z,13.02
2023-05-06T17:46:58.884Z,12.78
2023-05-06T17:49:25.279Z,12.78
2023-05-06T17:51:51.689Z,12.60
2023-05-06T17:54:18.076Z,12.55
2023-05-06T17:56:44.403Z,12.48
2023-05-06T17:59:10.717Z,12.19
2023-05-06T18:01:37.137Z,12.14
2023-05-06T18:04:03.659Z,12.07
2023-05-06T18:06:30.206Z,11.95
2023-05-06T18:08:56.589Z,12.06
2023-05-06T18:11:24.067Z,12.07
2023-05-06T18:13:50.554Z,12.13
2023-05-06T18:16:16.943Z,12.09
2023-05-06T18:18:43.272Z,12.05
2023-05-06T18:21:09.610Z,12.00
2023-05-06T18:23:37.060Z,11.94
2023-05-06T18:26:06.286Z,11.87
2023-05-06T18:28:36.227Z,11.68
2023-05-06T18:31:02.570Z,11.55
2023-05-06T18:33:28.907Z,11.51
2023-05-06T18:35:55.246Z,11.42
2023-05-06T18:38:21.576Z,11.37
2023-05-06T18:40:47.947Z,11.31
2023-05-06T18:43:14.302Z,11.17
2023-05-06T18:45:41.051Z,11.06
2023-05-06T18:48:07.410Z,11.02
2023-05-06T18:50:35.413Z,11.02
2023-05-06T18:53:01.748Z,11.00
2023-05-06T18:55:28.252Z,11.06
2023-05-06T18:57:54.687Z,10.96
2023-05-06T19:00:21.633Z,10.97
2023-05-06T19:02:48.659Z,11.02
2023-05-06T19:05:15.472Z,10.94
2023-05-06T19:07:41.950Z,10.93
2023-05-06T19:10:08.766Z,10.89
2023-05-06T19:12:35.277Z,10.83
2023-05-06T19:15:02.691Z,10.78
2023-05-06T19:17:29.179Z,10.63
2023-05-06T19:19:55.652Z,10.54
2023-05-06T19:22:22.165Z,10.54
2023-05-06T19:24:48.578Z,10.44
2023-05-06T19:27:16.011Z,10.43
2023-05-06T19:29:42.401Z,10.37
2023-05-06T19:32:08.851Z,10.36
2023-05-06T19:34:35.268Z,10.36
2023-05-06T19:37:01.625Z,10.23
2023-05-06T19:39:28.022Z,10.32
2023-05-06T19:41:54.381Z,10.34
2023-05-06T19:44:21.194Z,10.24
2023-05-06T19:46:49.192Z,10.20
2023-05-06T19:49:16.612Z,10.31
2023-05-06T19:51:43.986Z,10.30
2023-05-06T19:54:10.406Z,10.21
2023-05-06T19:56:43.596Z,10.36
2023-05-06T19:59:10.942Z,10.31
2023-05-06T20:01:37.520Z,10.29
2023-05-06T20:04:03.995Z,10.25
2023-05-06T20:06:30.606Z,10.21
2023-05-06T20:08:56.911Z,10.24
2023-05-06T20:11:23.238Z,10.11
2023-05-06T20:13:49.575Z,9.99
2023-05-06T20:16:17.059Z,9.81
2023-05-06T20:18:43.421Z,9.73
2023-05-06T20:21:09.782Z,9.67
2023-05-06T20:23:36.189Z,9.67
2023-05-06T20:26:02.534Z,9.48
2023-05-06T20:28:28.914Z,9.56
2023-05-06T20:30:55.274Z,9.48
2023-05-06T20:33:21.606Z,9.53
2023-05-06T20:35:48.081Z,9.50
2023-05-06T20:38:15.501Z,9.50
2023-05-06T20:40:41.867Z,9.55
2023-05-06T20:43:08.201Z,9.53
2023-05-06T20:45:35.683Z,9.68
2023-05-06T20:48:02.341Z,9.63
2023-05-06T20:50:28.768Z,9.56
2023-05-06T20:52:56.194Z,9.56
2023-05-06T20:55:22.761Z,9.53
2023-05-06T20:57:49.177Z,9.40
2023-05-06T21:00:15.594Z,9.53
2023-05-06T21:02:43.108Z,9.48
2023-05-06T21:05:09.973Z,9.33
2023-05-06T21:07:36.501Z,9.33
2023-05-06T21:10:03.840Z,9.45
2023-05-06T21:12:30.182Z,9.42
2023-05-06T21:14:58.359Z,9.59
2023-05-06T21:17:24.947Z,9.73
2023-05-06T21:19:51.411Z,9.68
2023-05-06T21:22:17.754Z,9.68
2023-05-06T21:24:44.097Z,9.74
2023-05-06T21:27:10.545Z,9.69
2023-05-06T21:29:36.869Z,9.61
2023-05-06T21:32:03.208Z,9.62
2023-05-06T21:34:29.589Z,9.51
2023-05-06T21:36:56.957Z,9.59
2023-05-06T21:39:23.437Z,9.62
2023-05-06T21:41:50.860Z,9.67
2023-05-06T21:44:17.173Z,9.71
2023-05-06T21:46:43.588Z,9.73
2023-05-06T21:49:09.948Z,9.73
2023-05-06T21:51:36.279Z,9.71
2023-05-06T21:54:02.877Z,9.63
2023-05-06T21:56:30.281Z,9.64
2023-05-06T21:58:56.611Z,9.61
2023-05-06T22:01:23.567Z,9.49
2023-05-06T22:03:50.116Z,9.48
2023-05-06T22:06:16.567Z,9.55
2023-05-06T22:08:42.944Z,9.58
2023-05-06T22:11:09.314Z,9.50
2023-05-06T22:13:35.669Z,9.45
2023-05-06T22:16:02.064Z,9.49
2023-05-06T22:18:28.768Z,9.40
2023-05-06T22:20:56.154Z,9.32
2023-05-06T22:23:23.574Z,9.28
2023-05-06T22:25:50.484Z,9.30
2023-05-06T22:28:16.806Z,9.45
2023-05-06T22:30:43.134Z,9.38
2023-05-06T22:33:09.492Z,9.31
2023-05-06T22:35:35.895Z,9.23
2023-05-06T22:38:02.219Z,9.27
2023-05-06T22:40:28.586Z,9.22
2023-05-06T22:42:55.504Z,9.20
2023-05-06T22:45:21.832Z,9.12
2023-05-06T22:47:48.173Z,9.24
2023-05-06T22:50:14.539Z,9.23
2023-05-06T22:52:40.905Z,9.32
2023-05-06T22:55:07.829Z,9.30
2023-05-06T22:57:34.301Z,9.30
2023-05-06T23:00:01.820Z,9.24
2023-05-06T23:02:28.184Z,9.09
2023-05-06T23:04:54.528Z,9.24
2023-05-06T23:07:20.869Z,9.20
2023-05-06T23:09:47.201Z,9.17
2023-05-06T23:12:14.591Z,9.18
2023-05-06T23:14:41.334Z,9.17
2023-05-06T23:17:07.819Z,9.24
2023-05-06T23:19:34.452Z,9.22
2023-05-06T23:22:00.842Z,9.21
2023-05-06T23:24:27.172Z,9.18
2023-05-06T23:26:53.501Z,9.28
2023-05-06T23:29:19.912Z,9.09
2023-05-06T23:31:46.242Z,9.07
2023-05-06T23:34:12.564Z,9.08
2023-05-06T23:36:39.951Z,9.18
2023-05-06T23:39:06.272Z,9.27
2023-05-06T23:41:32.637Z,9.18
2023-05-06T23:43:58.986Z,9.04
2023-05-06T23:46:25.485Z,9.08
2023-05-06T23:48:51.882Z,9.08
2023-05-06T23:51:18.250Z,9.03
2023-05-06T23:53:44.892Z,9.04
2023-05-06T23:56:11.245Z,9.03
2023-05-06T23:58:37.553Z,8.90
